METAR Data
IDs: Format: Raw Decoded Include TAF

Data at: 2208 UTC 01 Dec 2021

METAR for:KFFO (Wright Patterson AFB, OH, US)
Text:KFFO 012156Z 14005KT 7SM FEW004 FEW010 OVC026 07/05 A2986 RMK AO2A SLP121 P0001 T00720053
Temperature: 7.2°C ( 45°F)
Dewpoint: 5.3°C ( 42°F) [RH = 88%]
Pressure (altimeter):29.86 inches Hg (1011.3 mb) [Sea level pressure: 1012.1 mb]
Winds:from the SE (140 degrees) at 6 MPH (5 knots; 2.6 m/s)
Visibility: 7 sm ( 11 km)
Ceiling:2600 feet AGL
Clouds: few clouds at 400 feet AGL, few clouds at 1000 feet AGL, overcast cloud deck at 2600 feet AGL